Time;durP1;ratioP1;P1;durP2;ratioP2;P2;SDS_P1;SDS_P2;PMS_P1;PMS_P2;Temp;Humidity;BMP_temperature;BMP_pressure;BME280_temperature;BME280_humidity;BME280_pressure;Samples;Min_cycle;Max_cycle;Signal;HPM_P1;HPM_P2
2021/08/12 00:00:06;;;;;;;6.57;5.70;;;21.80;99.90;;;22.12;59.20;101547.44;4993100;27;97623;-52
2021/08/12 00:02:31;;;;;;;7.10;5.87;;;21.80;99.90;;;22.11;59.18;101532.28;4998866;27;97311;-52
2021/08/12 00:04:57;;;;;;;8.97;5.90;;;21.80;99.90;;;22.11;59.21;101545.72;4994940;27;97611;-50
2021/08/12 00:07:23;;;;;;;3.97;3.57;;;21.80;99.90;;;22.11;59.12;101544.88;4999611;27;98212;-50
2021/08/12 00:09:49;;;;;;;3.77;3.47;;;21.80;99.90;;;22.13;59.01;101538.44;4994121;27;100201;-48
2021/08/12 00:12:15;;;;;;;5.63;5.13;;;21.80;99.90;;;22.14;59.15;101545.53;4995074;27;99986;-45
2021/08/12 00:14:41;;;;;;;8.50;5.50;;;21.80;99.90;;;22.14;58.88;101542.00;5010041;27;100007;-49
2021/08/12 00:17:07;;;;;;;4.77;4.37;;;21.80;99.90;;;22.14;59.01;101550.91;4999019;27;97228;-45
2021/08/12 00:19:33;;;;;;;3.90;3.57;;;21.80;99.90;;;22.16;59.00;101543.59;5014168;27;98627;-50
2021/08/12 00:21:59;;;;;;;4.47;4.07;;;21.90;99.90;;;22.19;58.77;101532.63;4976157;27;104664;-45
2021/08/12 00:24:25;;;;;;;5.07;4.67;;;21.90;99.90;;;22.21;58.64;101533.38;4994157;27;98653;-50
2021/08/12 00:26:51;;;;;;;5.73;4.60;;;21.90;99.90;;;22.23;58.81;101538.63;5008926;27;100231;-48
2021/08/12 00:29:16;;;;;;;3.87;3.57;;;21.90;99.90;;;22.22;58.62;101545.84;4995879;28;98666;-48
2021/08/12 00:31:42;;;;;;;3.50;3.20;;;21.90;99.90;;;22.24;58.71;101545.72;5008032;27;97485;-49
2021/08/12 00:34:08;;;;;;;6.30;4.40;;;21.90;99.90;;;22.23;58.67;101555.63;5000824;27;100204;-48
2021/08/12 00:36:34;;;;;;;7.50;5.80;;;21.90;99.90;;;22.23;58.72;101546.69;4999198;27;98469;-45
2021/08/12 00:39:00;;;;;;;8.23;7.40;;;21.90;99.90;;;22.20;58.63;101550.47;5011914;27;101408;-47
2021/08/12 00:41:27;;;;;;;3.23;2.93;;;21.90;99.90;;;22.19;58.80;101551.44;4995871;27;100412;-50
2021/08/12 00:43:53;;;;;;;3.60;3.30;;;21.80;99.90;;;22.21;58.65;101541.44;5011789;27;98005;-48
2021/08/12 00:46:19;;;;;;;4.37;3.97;;;21.90;99.90;;;22.22;58.48;101543.16;4998607;27;96918;-49
2021/08/12 00:48:45;;;;;;;7.60;6.83;;;22.00;99.90;;;22.21;58.48;101544.13;4990362;27;99634;-47
2021/08/12 00:51:11;;;;;;;7.60;6.80;;;21.90;99.90;;;22.20;58.67;101550.47;5014169;27;99955;-50
2021/08/12 00:53:37;;;;;;;5.33;4.83;;;21.90;99.90;;;22.19;58.75;101548.75;5010225;27;97395;-48
2021/08/12 00:56:03;;;;;;;4.07;3.67;;;21.80;99.90;;;22.18;58.83;101544.34;4996764;27;98890;-48
2021/08/12 00:58:29;;;;;;;10.27;6.50;;;21.80;99.90;;;22.18;58.80;101540.78;4997171;27;98276;-47
2021/08/12 01:00:54;;;;;;;5.40;4.63;;;21.80;99.90;;;22.14;59.00;101545.53;5009626;27;96986;-50
2021/08/12 01:03:20;;;;;;;3.63;3.00;;;21.80;99.90;;;22.14;59.00;101547.38;4999405;27;98861;-48
2021/08/12 01:05:54;;;;;;;3.50;3.20;;;21.80;99.90;;;22.17;58.80;101548.00;4994043;27;99104;-49
2021/08/12 01:08:35;;;;;;;2.97;2.77;;;21.80;99.90;;;22.18;58.71;101547.03;4993775;27;98315;-47
2021/08/12 01:11:40;;;;;;;5.43;4.93;;;21.80;99.90;;;22.17;58.80;101545.31;4995739;27;99869;-51
2021/08/12 01:15:06;;;;;;;4.47;4.07;;;21.80;99.90;;;22.18;58.76;101546.16;4992826;27;102830;-47
2021/08/12 01:17:47;;;;;;;8.00;6.83;;;21.90;99.90;;;22.17;58.80;101549.81;4932806;28;99205;-49
2021/08/12 01:20:47;;;;;;;4.53;3.87;;;21.90;99.90;;;22.15;58.94;101560.69;4900744;28;97393;-51
2021/08/12 01:23:15;;;;;;;5.10;4.60;;;21.80;99.90;;;22.11;59.11;101561.84;5010186;27;102449;-50
2021/08/12 01:25:44;;;;;;;3.30;3.10;;;21.70;99.90;;;22.13;58.94;101553.66;4975542;27;97581;-56
2021/08/12 01:28:19;;;;;;;3.70;3.40;;;21.80;99.90;;;22.17;58.94;101556.06;4992123;27;98698;-50
2021/08/12 01:31:13;;;;;;;3.33;3.03;;;21.80;99.90;;;22.20;58.75;101555.84;4990622;27;100401;-47
2021/08/12 01:34:03;;;;;;;3.70;3.40;;;21.90;99.90;;;22.21;58.59;101557.56;4996759;27;98800;-50
2021/08/12 01:36:30;;;;;;;3.20;2.90;;;21.90;99.90;;;22.21;58.80;101549.50;4991701;27;99723;-45
2021/08/12 01:38:57;;;;;;;3.40;3.10;;;21.90;99.90;;;22.24;58.57;101549.28;5008079;27;104343;-52
2021/08/12 01:41:28;;;;;;;3.30;3.10;;;22.00;99.90;;;22.27;58.55;101546.34;4992325;27;101025;-51
2021/08/12 01:43:55;;;;;;;3.50;3.23;;;22.00;99.90;;;22.31;58.33;101547.03;4994384;27;99241;-46
2021/08/12 01:46:25;;;;;;;3.07;2.87;;;22.10;99.90;;;22.36;58.26;101538.63;4991131;27;99597;-48
2021/08/12 01:48:53;;;;;;;4.03;3.63;;;22.10;99.90;;;22.39;58.06;101533.03;4989764;27;99368;-46
2021/08/12 01:51:24;;;;;;;3.47;3.17;;;22.20;99.90;;;22.41;58.06;101533.78;5004313;27;98666;-44
2021/08/12 01:53:52;;;;;;;3.63;3.33;;;22.20;99.90;;;22.43;57.98;101526.47;5004629;27;100054;-46
2021/08/12 01:56:19;;;;;;;3.50;3.20;;;22.20;99.90;;;22.47;57.92;101526.13;4991068;27;98843;-47
2021/08/12 01:58:47;;;;;;;5.90;5.30;;;22.30;99.90;;;22.46;57.86;101529.81;4990502;27;99178;-47
2021/08/12 02:01:13;;;;;;;2.93;2.73;;;22.30;99.90;;;22.45;58.06;101528.09;4990933;27;96913;-48
2021/08/12 02:03:41;;;;;;;3.87;3.47;;;22.20;99.90;;;22.45;57.86;101533.47;5010334;27;98912;-50
2021/08/12 02:06:09;;;;;;;8.00;7.30;;;22.20;99.90;;;22.42;58.07;101538.19;4989906;28;104908;-46
2021/08/12 02:08:34;;;;;;;5.80;5.20;;;22.20;99.90;;;22.35;58.16;101536.91;5025787;27;97451;-46
2021/08/12 02:11:00;;;;;;;6.83;6.10;;;22.00;99.90;;;22.32;58.26;101542.50;5026314;27;99149;-51
2021/08/12 02:13:28;;;;;;;4.13;3.73;;;22.00;99.90;;;22.28;58.41;101541.88;5011020;27;100327;-48
2021/08/12 02:15:54;;;;;;;6.07;5.37;;;21.90;99.90;;;22.27;58.38;101535.59;5006691;27;98546;-48
2021/08/12 02:18:20;;;;;;;7.97;6.43;;;21.90;99.90;;;22.25;58.39;101534.88;5010400;27;96984;-47
2021/08/12 02:21:02;;;;;;;8.20;7.43;;;21.90;99.90;;;22.22;58.33;101540.47;5014124;27;97152;-50
2021/08/12 02:23:37;;;;;;;8.63;7.60;;;21.90;99.90;;;22.16;58.63;101540.91;5011358;27;97033;-45
2021/08/12 02:26:22;;;;;;;6.17;5.07;;;21.80;99.90;;;22.13;58.80;101541.13;5006453;27;100954;-45
2021/08/12 02:28:52;;;;;;;3.70;3.40;;;21.70;99.90;;;22.11;58.69;101537.66;5009075;27;99757;-47
2021/08/12 02:31:19;;;;;;;3.77;3.00;;;21.70;99.90;;;22.12;58.84;101531.31;5000490;27;99531;-49
2021/08/12 02:33:47;;;;;;;3.73;3.43;;;21.80;99.90;;;22.18;58.64;101525.53;5002012;27;98594;-49
2021/08/12 02:36:15;;;;;;;3.40;3.10;;;21.90;99.90;;;22.26;58.49;101512.41;5014307;28;97491;-47
2021/08/12 02:38:43;;;;;;;5.57;5.07;;;22.00;99.90;;;22.31;58.24;101505.84;5025850;27;96911;-53
2021/08/12 02:41:15;;;;;;;11.10;7.97;;;22.10;99.90;;;22.29;58.42;101516.72;5025647;27;97805;-48
2021/08/12 02:43:42;;;;;;;8.40;7.50;;;22.00;99.90;;;22.26;58.42;101525.84;5006105;27;97343;-50
2021/08/12 02:46:09;;;;;;;8.70;7.07;;;22.00;99.90;;;22.21;58.62;101530.69;5022685;27;104306;-51
2021/08/12 02:48:37;;;;;;;6.37;5.77;;;21.90;99.90;;;22.19;58.66;101538.00;5008904;27;98740;-48
2021/08/12 02:51:05;;;;;;;9.93;8.40;;;21.80;99.90;;;22.17;58.75;101534.56;5007703;27;97403;-47
2021/08/12 02:53:33;;;;;;;4.07;3.50;;;21.80;99.90;;;22.15;58.84;101536.50;5012067;27;97156;-46
2021/08/12 02:56:03;;;;;;;3.70;3.40;;;21.80;99.90;;;22.16;58.78;101532.00;4998814;27;96913;-50
2021/08/12 02:58:32;;;;;;;3.80;3.50;;;21.80;99.90;;;22.17;58.74;101534.56;5002712;27;97148;-48
2021/08/12 03:01:00;;;;;;;3.97;3.67;;;21.90;99.90;;;22.19;58.71;101516.50;5006232;27;97342;-47
2021/08/12 03:03:26;;;;;;;8.70;7.00;;;21.90;99.90;;;22.17;58.64;101529.19;5006661;27;97168;-50
2021/08/12 03:05:53;;;;;;;4.93;4.43;;;21.90;99.90;;;22.17;58.63;101523.81;5004732;27;98910;-48
2021/08/12 03:08:20;;;;;;;3.20;2.97;;;21.90;99.90;;;22.15;58.72;101523.06;5009846;27;97564;-50
2021/08/12 03:10:46;;;;;;;3.77;3.47;;;21.80;99.90;;;22.17;58.82;101528.34;5004140;27;97703;-49
2021/08/12 03:13:12;;;;;;;4.07;3.57;;;21.80;99.90;;;22.14;59.04;101520.50;5023424;27;97010;-49
2021/08/12 03:15:39;;;;;;;3.70;3.40;;;21.80;99.90;;;22.12;58.98;101515.19;5008121;28;97258;-46
2021/08/12 03:18:06;;;;;;;9.63;7.40;;;21.80;99.90;;;22.11;58.78;101523.38;5005897;27;97245;-47
2021/08/12 03:20:32;;;;;;;4.70;4.30;;;21.70;99.90;;;22.06;59.02;101523.69;5012284;28;96672;-49
2021/08/12 03:22:59;;;;;;;3.43;3.13;;;21.70;99.90;;;22.05;59.17;101524.69;5003078;27;100136;-51
2021/08/12 03:25:25;;;;;;;9.10;6.23;;;21.70;99.90;;;22.03;59.14;101521.22;5012917;27;99522;-50
2021/08/12 03:27:52;;;;;;;8.73;7.03;;;21.60;99.90;;;21.99;59.16;101530.47;5003149;27;98152;-52
2021/08/12 03:30:19;;;;;;;6.30;5.10;;;21.60;99.90;;;21.99;59.22;101530.47;5020649;27;98516;-50
2021/08/12 03:32:45;;;;;;;4.87;4.10;;;21.60;99.90;;;21.97;59.48;101527.00;4998805;27;99320;-46
2021/08/12 03:35:11;;;;;;;4.97;4.47;;;21.60;99.90;;;21.96;59.44;101536.00;5013040;27;97415;-49
2021/08/12 03:37:37;;;;;;;5.83;5.30;;;21.50;99.90;;;21.95;59.54;101537.84;5013031;27;97978;-47
2021/08/12 03:40:04;;;;;;;7.33;6.27;;;21.60;99.90;;;21.94;59.55;101532.56;5009136;27;98277;-53
2021/08/12 03:42:30;;;;;;;5.10;4.33;;;21.60;99.90;;;21.94;59.55;101530.75;5005770;27;98887;-46
2021/08/12 03:44:56;;;;;;;4.20;3.80;;;21.50;99.90;;;21.94;59.39;101538.81;5008194;27;99650;-46
2021/08/12 03:47:22;;;;;;;4.10;3.70;;;21.60;99.90;;;21.97;59.32;101535.03;5004330;27;98641;-46
2021/08/12 03:49:48;;;;;;;4.40;4.00;;;21.60;99.90;;;21.98;59.38;101534.06;5008412;27;97483;-47
2021/08/12 03:52:14;;;;;;;4.17;3.77;;;21.60;99.90;;;21.99;59.29;101535.81;5014730;27;99295;-45
2021/08/12 03:54:40;;;;;;;3.67;3.37;;;21.60;99.90;;;22.01;59.34;101539.25;5010954;27;97128;-46
2021/08/12 03:57:06;;;;;;;3.87;3.57;;;21.70;99.90;;;22.05;59.07;101534.53;5025878;27;96881;-46
2021/08/12 03:59:33;;;;;;;8.43;6.70;;;21.80;99.90;;;22.07;59.01;101549.59;5027512;27;98615;-46
2021/08/12 04:01:59;;;;;;;11.27;7.27;;;21.80;99.90;;;22.05;59.04;101550.66;5027577;27;97228;-45
2021/08/12 04:04:28;;;;;;;8.33;7.50;;;21.70;99.90;;;22.03;59.08;101549.91;5012209;27;97539;-47
2021/08/12 04:06:54;;;;;;;8.27;7.47;;;21.60;99.90;;;21.99;59.30;101551.94;5009864;27;96930;-48
2021/08/12 04:09:20;;;;;;;8.40;7.60;;;21.60;99.90;;;21.96;59.31;101557.50;5014384;27;99224;-48
2021/08/12 04:11:46;;;;;;;4.50;4.10;;;21.60;99.90;;;21.94;59.46;101559.44;5009501;27;99874;-46
2021/08/12 04:14:11;;;;;;;3.90;3.60;;;21.50;99.90;;;21.95;59.40;101556.66;5016782;27;97822;-47
2021/08/12 04:16:37;;;;;;;4.40;4.00;;;21.50;99.90;;;21.97;59.25;101556.53;5031643;27;97330;-50
2021/08/12 04:19:04;;;;;;;3.60;3.30;;;21.60;99.90;;;22.00;59.27;101552.81;5012225;27;97430;-45
2021/08/12 04:21:30;;;;;;;3.93;3.60;;;21.70;99.90;;;22.04;59.13;101547.09;5010456;27;97836;-48
2021/08/12 04:23:56;;;;;;;3.93;3.63;;;21.70;99.90;;;22.09;59.01;101547.66;5004789;27;97171;-46
2021/08/12 04:26:28;;;;;;;3.90;3.53;;;21.80;99.90;;;22.13;58.97;101541.13;5004091;27;97915;-47
2021/08/12 04:28:55;;;;;;;3.20;2.90;;;21.90;99.90;;;22.16;58.91;101542.72;5023050;27;97087;-47
2021/08/12 04:31:22;;;;;;;3.90;3.50;;;21.90;99.90;;;22.23;58.61;101544.88;5007719;27;99774;-44
2021/08/12 04:33:47;;;;;;;3.60;3.30;;;22.00;99.90;;;22.31;58.36;101540.78;5010131;27;99310;-48
2021/08/12 04:36:13;;;;;;;3.80;3.50;;;22.10;99.90;;;22.36;58.13;101533.25;5012800;27;98872;-51
2021/08/12 04:38:39;;;;;;;3.50;3.20;;;22.20;99.90;;;22.40;57.99;101534.75;5027915;27;98060;-45
2021/08/12 04:41:05;;;;;;;3.20;3.00;;;22.20;99.90;;;22.44;57.82;101542.50;5001287;27;98818;-49
2021/08/12 04:43:31;;;;;;;3.60;3.30;;;22.30;99.90;;;22.46;57.87;101539.69;5009526;27;97637;-49
2021/08/12 04:45:57;;;;;;;3.83;3.53;;;22.30;99.90;;;22.49;57.77;101543.00;5007468;27;103861;-50
2021/08/12 04:48:23;;;;;;;3.67;3.37;;;22.30;99.90;;;22.50;57.63;101541.19;5010162;27;97252;-48
2021/08/12 04:50:49;;;;;;;2.90;2.70;;;22.40;99.90;;;22.53;57.58;101549.88;5013607;27;97174;-49
2021/08/12 04:53:15;;;;;;;3.80;3.50;;;22.40;99.90;;;22.52;57.66;101539.25;5010567;27;97104;-49
2021/08/12 04:55:41;;;;;;;3.43;3.13;;;22.40;99.90;;;22.52;57.57;101544.63;5012387;27;98186;-56
2021/08/12 04:58:06;;;;;;;3.80;3.50;;;22.40;99.90;;;22.52;57.56;101545.47;5028263;27;97636;-48
2021/08/12 05:00:33;;;;;;;3.30;3.00;;;22.30;99.90;;;22.52;57.52;101544.63;5012705;27;97817;-46
2021/08/12 05:03:00;;;;;;;3.47;3.17;;;22.30;99.90;;;22.52;57.63;101550.84;5007213;27;99950;-51
2021/08/12 05:05:26;;;;;;;3.13;2.93;;;22.30;99.90;;;22.51;57.53;101553.66;5014106;27;97010;-49
2021/08/12 05:07:52;;;;;;;4.00;3.60;;;22.30;99.90;;;22.52;57.66;101539.25;5025099;27;96972;-49
2021/08/12 05:10:18;;;;;;;3.47;3.17;;;22.30;99.90;;;22.51;57.63;101540.22;5009673;27;100149;-49
2021/08/12 05:12:44;;;;;;;3.90;3.60;;;22.30;99.90;;;22.49;57.56;101548.41;5012254;27;98800;-49
2021/08/12 05:15:10;;;;;;;3.77;3.47;;;22.30;99.90;;;22.48;57.72;101556.56;5033080;27;98297;-47
2021/08/12 05:17:36;;;;;;;4.00;3.70;;;22.30;99.90;;;22.47;57.81;101554.84;5034820;27;97478;-45
2021/08/12 05:20:02;;;;;;;4.27;3.50;;;22.20;99.90;;;22.44;57.72;101565.84;4988390;27;99427;-49
2021/08/12 05:22:28;;;;;;;4.93;4.03;;;22.20;99.90;;;22.39;57.99;101559.91;5023183;27;97559;-48
2021/08/12 05:24:54;;;;;;;4.00;3.63;;;22.10;99.90;;;22.36;58.06;101560.13;5031037;27;97624;-47
2021/08/12 05:27:20;;;;;;;3.70;3.40;;;22.10;99.90;;;22.34;58.04;101567.44;5017604;27;96858;-49
2021/08/12 05:29:45;;;;;;;5.43;4.87;;;22.00;99.90;;;22.33;58.27;101565.72;5008436;27;98625;-47
2021/08/12 05:32:11;;;;;;;4.40;4.00;;;22.00;99.90;;;22.27;58.31;101573.22;5031999;27;100175;-47
2021/08/12 05:34:37;;;;;;;4.93;4.47;;;21.90;99.90;;;22.25;58.48;101577.84;5016383;27;96863;-53
2021/08/12 05:37:03;;;;;;;3.73;3.43;;;21.90;99.90;;;22.23;58.55;101578.94;5013342;27;96995;-50
2021/08/12 05:39:30;;;;;;;4.20;3.67;;;21.90;99.90;;;22.24;58.46;101576.16;5018557;27;98318;-53
2021/08/12 05:41:56;;;;;;;4.00;3.70;;;21.90;99.90;;;22.25;58.50;101579.69;5021189;27;97181;-51
2021/08/12 05:44:21;;;;;;;9.07;8.17;;;21.90;99.90;;;22.24;58.31;101577.97;5015464;27;101359;-54
2021/08/12 05:46:47;;;;;;;4.00;3.60;;;21.90;99.90;;;22.24;58.55;101584.22;5027494;27;102456;-48
2021/08/12 05:49:13;;;;;;;4.73;4.27;;;22.00;99.90;;;22.26;58.31;101579.56;5016309;27;99374;-47
2021/08/12 05:51:39;;;;;;;3.63;3.33;;;22.00;99.90;;;22.29;58.36;101585.72;5014294;27;96976;-45
2021/08/12 05:54:08;;;;;;;7.50;6.73;;;22.00;99.90;;;22.29;58.38;101583.03;5014092;27;96920;-48
2021/08/12 05:56:37;;;;;;;4.00;3.60;;;22.00;99.90;;;22.29;58.43;101574.97;5029544;27;97140;-52
2021/08/12 05:59:03;;;;;;;4.33;3.93;;;22.00;99.90;;;22.32;58.19;101580.13;5007387;27;98266;-50
2021/08/12 06:01:29;;;;;;;5.00;3.83;;;22.10;99.90;;;22.37;58.22;101577.97;5014805;27;99200;-51
2021/08/12 06:03:55;;;;;;;4.57;3.53;;;22.20;99.90;;;22.40;58.19;101580.44;5010774;27;98281;-47
2021/08/12 06:06:21;;;;;;;4.00;3.70;;;22.20;99.90;;;22.40;58.07;101592.03;5025278;27;98310;-45
2021/08/12 06:08:47;;;;;;;3.97;3.40;;;22.20;99.90;;;22.44;58.00;101579.28;5007480;27;97497;-49
2021/08/12 06:11:13;;;;;;;4.03;3.33;;;22.30;99.90;;;22.47;57.83;101573.66;5020029;27;98217;-49
2021/08/12 06:13:39;;;;;;;4.63;3.97;;;22.30;99.90;;;22.52;57.63;101574.19;5015326;27;99537;-50
2021/08/12 06:16:06;;;;;;;4.00;3.13;;;22.40;99.90;;;22.53;57.62;101578.59;5029249;27;101617;-50
2021/08/12 06:18:32;;;;;;;3.97;3.57;;;22.50;99.90;;;22.57;57.61;101566.69;5034556;27;98047;-49
2021/08/12 06:20:59;;;;;;;3.80;3.50;;;22.50;99.90;;;22.61;57.39;101576.22;5027862;27;101543;-46
2021/08/12 06:23:25;;;;;;;3.70;3.40;;;22.50;99.90;;;22.64;57.31;101570.63;5035507;27;97957;-48
2021/08/12 06:25:51;;;;;;;4.93;4.43;;;22.60;99.90;;;22.65;57.31;101572.34;5025604;27;97201;-48
2021/08/12 06:28:17;;;;;;;11.37;10.07;;;22.60;99.90;;;22.65;57.29;101571.50;5014875;27;97133;-48
2021/08/12 06:30:43;;;;;;;3.97;3.60;;;22.50;99.90;;;22.64;57.29;101570.63;5007996;27;99730;-47
2021/08/12 06:33:09;;;;;;;4.97;4.47;;;22.50;99.90;;;22.65;57.23;101561.59;5032749;27;97247;-47
2021/08/12 06:35:35;;;;;;;12.40;9.83;;;22.50;99.90;;;22.63;57.38;101558.16;5033186;27;97416;-48
2021/08/12 06:38:04;;;;;;;13.77;11.03;;;22.50;99.90;;;22.54;58.20;101558.81;5016516;27;99618;-46
2021/08/12 06:40:30;;;;;;;3.83;3.47;;;22.40;99.90;;;22.56;57.53;101557.72;5019001;27;97013;-51
2021/08/12 06:42:56;;;;;;;3.83;3.53;;;22.40;99.90;;;22.58;57.40;101560.34;5006782;27;98937;-50
2021/08/12 06:45:24;;;;;;;3.90;3.50;;;22.40;99.90;;;22.61;57.45;101557.41;5034259;27;97214;-46
2021/08/12 06:47:52;;;;;;;4.17;3.53;;;22.50;99.90;;;22.63;57.37;101558.16;5013243;27;97465;-50
2021/08/12 06:50:20;;;;;;;5.20;4.70;;;22.50;99.90;;;22.65;57.24;101566.97;5025173;27;98359;-51
2021/08/12 06:52:46;;;;;;;3.93;3.57;;;22.60;99.90;;;22.68;57.16;101555.97;5025789;27;97742;-48
2021/08/12 06:55:13;;;;;;;13.63;10.87;;;22.60;99.90;;;22.72;57.35;101556.66;5025834;27;97038;-47
2021/08/12 06:57:39;;;;;;;4.13;3.73;;;22.60;99.90;;;22.72;57.17;101568.25;5013540;27;97780;-51
2021/08/12 07:00:07;;;;;;;8.77;6.73;;;22.60;99.90;;;22.71;57.37;101571.94;5015456;27;98223;-46
2021/08/12 07:02:33;;;;;;;12.40;9.23;;;22.60;99.90;;;22.71;57.56;101566.53;5016675;27;98621;-53
2021/08/12 07:04:59;;;;;;;4.03;3.70;;;22.60;99.90;;;22.68;57.17;101565.88;5032832;27;97239;-48
2021/08/12 07:07:25;;;;;;;5.93;5.30;;;22.60;99.90;;;22.68;57.36;101561.38;5000061;27;99762;-54
2021/08/12 07:09:52;;;;;;;9.70;8.70;;;22.50;99.90;;;22.67;58.32;101567.72;4991703;27;107509;-52
2021/08/12 07:12:19;;;;;;;12.03;9.43;;;22.50;99.90;;;22.66;57.50;101563.31;4999656;27;97990;-54
2021/08/12 07:14:45;;;;;;;5.20;4.43;;;22.50;99.90;;;22.67;57.56;101565.03;4996558;27;97428;-48
2021/08/12 07:17:12;;;;;;;14.10;10.87;;;22.50;99.90;;;22.68;58.54;101560.50;4993564;27;99654;-54
2021/08/12 07:19:37;;;;;;;12.20;10.50;;;22.50;99.90;;;22.67;57.94;101558.78;5008337;27;99548;-52
2021/08/12 07:22:04;;;;;;;16.73;13.07;;;22.50;99.90;;;22.65;59.54;101563.44;4987800;27;98223;-50
2021/08/12 07:24:30;;;;;;;9.07;8.07;;;22.50;99.90;;;22.65;57.59;101560.72;4992937;27;99171;-53
2021/08/12 07:26:57;;;;;;;4.33;3.93;;;22.50;99.90;;;22.65;57.44;101564.28;4994369;27;97251;-52
2021/08/12 07:29:23;;;;;;;4.23;3.83;;;22.50;99.90;;;22.63;57.34;101563.53;4995505;27;97184;-47
2021/08/12 07:31:50;;;;;;;3.90;3.60;;;22.50;99.90;;;22.67;57.29;101554.28;4994920;27;98757;-51
2021/08/12 07:34:16;;;;;;;15.10;13.53;;;22.50;99.90;;;22.68;59.37;101561.38;4995743;27;99821;-53
2021/08/12 07:36:42;;;;;;;4.30;3.90;;;22.60;99.90;;;22.69;57.20;101562.22;5009337;27;102101;-56
2021/08/12 07:39:08;;;;;;;9.13;6.83;;;22.60;99.90;;;22.73;57.37;101563.75;5009503;27;99685;-48
2021/08/12 07:41:35;;;;;;;10.83;8.83;;;22.60;99.90;;;22.75;57.72;101568.03;4975844;27;107108;-53
2021/08/12 07:44:02;;;;;;;3.53;3.20;;;22.70;99.90;;;22.77;57.08;101570.59;4986778;27;99237;-50
2021/08/12 07:46:29;;;;;;;7.30;6.47;;;22.70;99.90;;;22.79;57.21;101574.91;4989836;28;99519;-54
2021/08/12 07:48:54;;;;;;;10.93;8.40;;;22.70;99.90;;;22.82;57.41;101574.69;5001703;27;101101;-53
2021/08/12 07:51:23;;;;;;;3.87;3.53;;;22.70;99.90;;;22.81;57.15;101570.25;4989944;27;98754;-47
2021/08/12 07:53:50;;;;;;;5.00;3.80;;;22.70;99.90;;;22.82;56.74;101568.44;4985326;27;99092;-48
2021/08/12 07:56:16;;;;;;;4.03;3.73;;;22.70;99.90;;;22.81;56.87;101562.19;4991683;27;97303;-53
2021/08/12 07:58:42;;;;;;;4.23;3.83;;;22.70;99.90;;;22.81;56.77;101566.72;4990049;27;99533;-49
2021/08/12 08:01:08;;;;;;;4.03;3.70;;;22.80;99.90;;;22.82;56.72;101569.31;4991127;27;97199;-49
2021/08/12 08:03:34;;;;;;;4.27;3.90;;;22.80;99.90;;;22.83;56.77;101571.03;4992750;27;98302;-54
2021/08/12 08:06:01;;;;;;;3.53;3.23;;;22.80;99.90;;;22.85;56.88;101569.09;4984119;27;109911;-48
2021/08/12 08:08:28;;;;;;;3.90;3.60;;;22.80;99.90;;;22.88;56.52;101577.94;4991669;27;97836;-46
2021/08/12 08:10:54;;;;;;;4.70;4.30;;;22.80;99.90;;;22.88;56.80;101572.56;4986941;27;97472;-54
2021/08/12 08:13:20;;;;;;;4.40;4.00;;;22.80;99.90;;;22.87;56.65;101577.09;4990227;27;97504;-53
2021/08/12 08:15:46;;;;;;;3.93;3.53;;;22.80;99.90;;;22.85;56.59;101579.00;4985253;27;98311;-50
2021/08/12 08:18:13;;;;;;;4.57;4.17;;;22.80;99.90;;;22.88;56.61;101573.41;4990061;27;97239;-51
2021/08/12 08:20:39;;;;;;;4.53;4.13;;;22.90;99.90;;;22.91;56.63;101580.41;5010182;27;98441;-52
2021/08/12 08:23:07;;;;;;;4.60;3.63;;;22.90;99.90;;;22.94;56.59;101581.03;4988235;27;98032;-52
2021/08/12 08:25:34;;;;;;;4.57;3.53;;;22.90;99.90;;;22.93;56.56;101583.84;4995688;27;97897;-51
2021/08/12 08:28:01;;;;;;;18.10;14.73;;;22.90;99.90;;;22.94;60.89;101577.47;4992457;27;98665;-50
2021/08/12 08:30:30;;;;;;;6.53;5.93;;;22.90;99.90;;;22.93;56.66;101575.75;4995208;27;98271;-54
2021/08/12 08:32:56;;;;;;;4.57;4.13;;;22.90;99.90;;;22.93;56.58;101576.63;4993709;27;97563;-53
2021/08/12 08:35:25;;;;;;;23.00;15.20;;;22.90;99.90;;;22.94;61.64;101580.16;4995691;27;99491;-51
2021/08/12 08:37:58;;;;;;;16.37;13.77;;;22.90;99.90;;;22.93;58.92;101581.13;4993911;27;98906;-50
2021/08/12 08:40:25;;;;;;;13.83;12.13;;;22.90;99.90;;;22.93;58.68;101582.00;4997103;27;97497;-54
2021/08/12 08:42:52;;;;;;;19.70;15.90;;;22.90;99.90;;;22.89;60.42;101588.59;4996136;27;97404;-49
2021/08/12 08:45:25;;;;;;;18.47;15.47;;;22.80;99.90;;;22.89;58.15;101587.72;5014506;27;100275;-49
2021/08/12 08:47:53;;;;;;;4.67;4.20;;;22.70;99.90;;;22.83;57.14;101581.81;4994322;27;99940;-52
2021/08/12 08:50:22;;;;;;;17.43;14.40;;;22.70;99.90;;;22.90;60.52;101586.75;5011206;27;98421;-50
2021/08/12 08:52:49;;;;;;;22.87;15.87;;;22.80;99.90;;;22.89;59.88;101579.66;4993907;27;99502;-54
2021/08/12 08:55:21;;;;;;;5.30;4.80;;;22.80;99.90;;;22.91;56.99;101580.41;4996503;27;105478;-46
2021/08/12 08:57:53;;;;;;;14.80;12.83;;;22.80;99.90;;;22.96;60.07;101584.47;5008649;27;100063;-51
2021/08/12 09:00:20;;;;;;;15.73;13.07;;;22.90;99.90;;;22.98;59.55;101570.91;4991339;27;97505;-47
2021/08/12 09:02:48;;;;;;;11.53;10.30;;;22.90;99.90;;;23.00;57.68;101577.03;4992731;27;97803;-52
2021/08/12 09:05:15;;;;;;;17.77;13.40;;;22.90;99.90;;;23.01;59.84;101584.16;4992499;27;98984;-49
2021/08/12 09:07:43;;;;;;;18.40;14.57;;;22.90;99.90;;;23.00;61.46;101588.66;4995328;27;99080;-51
2021/08/12 09:10:14;;;;;;;16.87;14.43;;;22.90;99.90;;;23.02;58.34;101591.25;4988767;27;97736;-52
2021/08/12 09:12:47;;;;;;;9.60;8.60;;;22.90;99.90;;;23.02;56.93;101581.34;4991309;27;97606;-48
2021/08/12 09:15:18;;;;;;;14.93;13.10;;;23.00;99.90;;;23.03;60.34;101588.44;5006891;27;104282;-50
2021/08/12 09:17:44;;;;;;;14.97;12.90;;;23.00;99.90;;;23.04;57.33;101589.28;4988218;27;98602;-51
2021/08/12 09:20:26;;;;;;;17.97;15.27;;;23.00;99.90;;;23.06;60.31;101592.72;4991985;27;97695;-51
2021/08/12 09:23:01;;;;;;;15.67;13.70;;;23.00;99.90;;;23.05;60.11;101596.41;5003306;27;97692;-53
2021/08/12 09:25:42;;;;;;;16.03;13.83;;;23.00;99.90;;;23.05;58.91;101596.41;4991060;27;98014;-51
2021/08/12 09:28:27;;;;;;;6.20;5.60;;;23.00;99.90;;;23.08;56.99;101593.47;4988652;27;104197;-54
2021/08/12 09:31:02;;;;;;;15.13;12.30;;;23.00;99.90;;;23.08;56.97;101586.25;4989298;27;98717;-52
2021/08/12 09:33:42;;;;;;;20.93;13.23;;;23.00;99.90;;;23.10;61.67;101588.81;4991029;27;99614;-46
2021/08/12 09:36:26;;;;;;;17.50;11.43;;;23.10;99.90;;;23.11;59.11;101591.41;5007192;27;104772;-51
2021/08/12 09:39:24;;;;;;;16.40;11.40;;;23.10;99.90;;;23.14;60.57;101590.31;4986458;27;98336;-47
2021/08/12 09:41:55;;;;;;;15.37;12.20;;;23.10;99.90;;;23.10;58.33;101578.06;4933466;27;96937;-51
2021/08/12 09:44:51;;;;;;;14.30;11.03;;;23.10;99.90;;;23.13;58.44;101577.84;5010619;27;98482;-50
2021/08/12 09:47:19;;;;;;;13.57;11.00;;;23.10;99.90;;;23.13;58.56;101569.75;4990258;27;103999;-53
2021/08/12 09:49:53;;;;;;;13.27;11.70;;;23.10;99.90;;;23.16;57.18;101577.63;4984070;27;99063;-49
2021/08/12 09:52:37;;;;;;;7.63;6.83;;;23.10;99.90;;;23.17;56.47;101582.03;4996408;27;100886;-53
2021/08/12 09:55:06;;;;;;;14.07;10.35;;;23.10;99.90;;;23.17;56.67;101583.88;4989569;27;98857;-49
2021/08/12 09:57:53;;;;;;;11.67;8.73;;;23.10;99.90;;;23.17;56.63;101573.97;5011371;27;97669;-53
2021/08/12 10:00:25;;;;;;;8.95;7.05;;;23.10;99.90;;;23.18;56.34;101580.22;4989346;27;104162;-54
2021/08/12 10:02:52;;;;;;;10.27;9.05;;;23.10;99.90;;;23.16;56.81;101572.25;4991140;27;98429;-53
2021/08/12 10:05:18;;;;;;;14.20;10.73;;;23.10;99.90;;;23.18;56.61;101580.22;5014824;27;98901;-49
2021/08/12 10:07:53;;;;;;;14.50;12.23;;;23.20;99.90;;;23.19;56.70;101577.41;4989925;27;98667;-51
2021/08/12 10:10:27;;;;;;;17.25;11.63;;;23.20;99.90;;;23.19;56.37;101577.41;4994695;27;97849;-51
2021/08/12 10:12:56;;;;;;;13.20;10.80;;;23.20;99.90;;;23.18;56.72;101573.00;5006946;27;99341;-53
2021/08/12 10:15:32;;;;;;;13.98;10.85;;;23.20;99.90;;;23.22;56.23;101573.63;4989816;27;97649;-53